createdAt,value
2023-05-12T00:01:31.120Z,18.07
2023-05-12T00:06:30.396Z,18.30
2023-05-12T00:11:29.662Z,18.07
2023-05-12T00:16:28.938Z,18.11
2023-05-12T00:21:28.197Z,18.23
2023-05-12T00:26:28.477Z,18.03
2023-05-12T00:31:26.747Z,18.05
2023-05-12T00:36:25.969Z,18.08
2023-05-12T00:41:25.209Z,18.02
2023-05-12T00:46:25.486Z,18.11
2023-05-12T00:51:23.694Z,18.05
2023-05-12T00:56:22.940Z,18.07
2023-05-12T01:01:22.199Z,18.36
2023-05-12T01:06:21.420Z,18.18
2023-05-12T01:11:21.641Z,18.44
2023-05-12T01:16:19.846Z,18.32
2023-05-12T01:21:19.110Z,18.25
2023-05-12T01:26:19.354Z,18.17
2023-05-12T01:31:21.151Z,18.05
2023-05-12T01:36:17.730Z,17.90
2023-05-12T01:41:15.980Z,17.90
2023-05-12T01:46:15.280Z,18.17
2023-05-12T01:51:13.504Z,18.08
2023-05-12T01:56:14.776Z,18.02
2023-05-12T02:01:13.061Z,18.05
2023-05-12T02:06:13.304Z,17.96
2023-05-12T02:11:12.565Z,17.92
2023-05-12T02:16:10.843Z,17.92
2023-05-12T02:21:10.145Z,17.95
2023-05-12T02:26:09.413Z,18.14
2023-05-12T02:31:09.684Z,18.05
2023-05-12T02:36:08.959Z,17.97
2023-05-12T02:41:08.233Z,17.87
2023-05-12T02:46:07.506Z,17.90
2023-05-12T02:51:06.727Z,18.00
2023-05-12T02:56:05.939Z,17.90
2023-05-12T03:01:10.569Z,17.77
2023-05-12T03:06:05.436Z,17.92
2023-05-12T03:11:02.706Z,17.72
2023-05-12T03:16:05.984Z,17.89
2023-05-12T03:21:01.219Z,17.86
2023-05-12T03:26:02.509Z,17.81
2023-05-12T03:30:59.977Z,17.84
2023-05-12T03:35:59.079Z,17.74
2023-05-12T03:40:59.329Z,17.82
2023-05-12T03:45:57.619Z,17.84
2023-05-12T03:50:55.839Z,17.72
2023-05-12T03:55:57.090Z,17.70
2023-05-12T04:00:56.316Z,17.71
2023-05-12T04:05:54.706Z,17.54
2023-05-12T04:10:52.764Z,17.82
2023-05-12T04:15:57.192Z,17.81
2023-05-12T04:20:52.193Z,17.86
2023-05-12T04:25:51.424Z,17.68
2023-05-12T04:30:51.675Z,17.70
2023-05-12T04:35:49.928Z,17.74
2023-05-12T04:40:49.183Z,17.82
2023-05-12T04:45:49.488Z,17.59
2023-05-12T04:50:47.687Z,17.38
2023-05-12T04:55:47.918Z,17.52
2023-05-12T05:00:48.148Z,17.78
2023-05-12T05:05:45.368Z,18.11
2023-05-12T05:10:44.620Z,17.89
2023-05-12T05:15:43.888Z,18.10
2023-05-12T05:20:45.283Z,18.08
2023-05-12T05:25:43.256Z,17.89
2023-05-12T05:30:41.529Z,17.90
2023-05-12T05:35:40.791Z,17.95
2023-05-12T05:40:52.334Z,18.08
2023-05-12T05:45:40.389Z,18.10
2023-05-12T05:50:38.645Z,18.20
2023-05-12T05:55:37.915Z,18.03
2023-05-12T06:00:39.180Z,18.21
2023-05-12T06:05:36.324Z,17.75
2023-05-12T06:10:35.633Z,17.95
2023-05-12T06:15:35.912Z,18.12
2023-05-12T06:20:34.200Z,18.00
2023-05-12T06:25:33.528Z,18.11
2023-05-12T06:30:34.827Z,18.20
2023-05-12T06:35:32.115Z,18.05
2023-05-12T06:40:31.409Z,18.23
2023-05-12T06:45:31.729Z,18.14
2023-05-12T06:50:31.021Z,18.29
2023-05-12T06:55:29.318Z,18.37
2023-05-12T07:00:28.636Z,18.27
2023-05-12T07:05:27.962Z,18.47
2023-05-12T07:10:28.251Z,18.65
2023-05-12T07:15:26.531Z,18.45
2023-05-12T07:20:25.900Z,18.52
2023-05-12T07:25:25.145Z,18.70
2023-05-12T07:30:24.247Z,18.69
2023-05-12T07:35:25.576Z,18.69
2023-05-12T07:40:23.872Z,18.88
2023-05-12T07:45:22.220Z,18.91
2023-05-12T07:50:21.511Z,19.07
2023-05-12T07:55:21.148Z,18.90
2023-05-12T08:00:19.083Z,18.90
2023-05-12T08:05:20.630Z,18.76
2023-05-12T08:10:19.634Z,19.08
2023-05-12T08:15:19.100Z,19.14
2023-05-12T08:20:19.287Z,19.26
2023-05-12T08:25:16.591Z,19.36
2023-05-12T08:30:15.870Z,19.51
2023-05-12T08:35:15.192Z,19.29
2023-05-12T08:40:14.529Z,19.25
2023-05-12T08:45:14.831Z,19.31
2023-05-12T08:50:13.146Z,19.33
2023-05-12T08:55:14.453Z,19.43
2023-05-12T09:00:11.761Z,19.47
2023-05-12T09:05:12.101Z,19.29
2023-05-12T09:10:19.657Z,19.32
2023-05-12T09:15:09.594Z,19.43
2023-05-12T09:20:17.696Z,19.61
2023-05-12T09:25:07.893Z,19.54
2023-05-12T09:30:07.233Z,19.46
2023-05-12T09:35:06.545Z,19.47
2023-05-12T09:40:06.900Z,19.46
2023-05-12T09:45:06.028Z,19.55
2023-05-12T09:50:05.407Z,19.63
2023-05-12T09:55:04.520Z,19.55
2023-05-12T10:00:06.013Z,19.48
2023-05-12T10:05:03.223Z,19.44
2023-05-12T10:10:01.380Z,19.29
2023-05-12T10:15:01.599Z,19.21
2023-05-12T10:20:00.882Z,19.18
2023-05-12T10:24:59.196Z,19.29
2023-05-12T10:29:58.508Z,19.26
2023-05-12T10:34:59.229Z,19.41
2023-05-12T10:39:59.133Z,19.56
2023-05-12T10:44:56.582Z,19.66
2023-05-12T10:49:55.699Z,19.78
2023-05-12T10:54:55.067Z,19.80
2023-05-12T10:59:55.433Z,19.78
2023-05-12T11:04:53.547Z,19.80
2023-05-12T11:09:57.671Z,19.91
2023-05-12T11:14:52.798Z,20.01
2023-05-12T11:19:53.047Z,20.03
2023-05-12T11:24:50.309Z,20.01
2023-05-12T11:29:49.554Z,19.88
2023-05-12T11:34:48.801Z,19.91
2023-05-12T11:39:48.054Z,19.92
2023-05-12T11:44:48.407Z,20.05
2023-05-12T11:49:46.553Z,20.05
2023-05-12T11:54:45.797Z,20.10
2023-05-12T11:59:46.040Z,19.99
2023-05-12T12:04:47.437Z,19.99
2023-05-12T12:09:44.466Z,20.23
2023-05-12T12:14:42.733Z,20.18
2023-05-12T12:19:42.986Z,20.26
2023-05-12T12:24:42.221Z,20.24
2023-05-12T12:29:40.424Z,20.36
2023-05-12T12:34:40.667Z,20.31
2023-05-12T12:39:39.905Z,20.35
2023-05-12T12:44:40.203Z,20.47
2023-05-12T12:49:37.426Z,20.41
2023-05-12T12:54:37.705Z,20.47
2023-05-12T12:59:36.925Z,20.51
2023-05-12T13:04:36.175Z,20.52
2023-05-12T13:09:34.421Z,20.52
2023-05-12T13:14:34.681Z,20.50
2023-05-12T13:19:36.509Z,20.47
2023-05-12T13:24:32.233Z,20.51
2023-05-12T13:29:31.479Z,20.54
2023-05-12T13:34:30.729Z,20.51
2023-05-12T13:39:29.974Z,20.48
2023-05-12T13:44:29.241Z,20.48
2023-05-12T13:49:29.493Z,20.51
2023-05-12T13:54:27.745Z,20.54
2023-05-12T13:59:26.983Z,20.52
2023-05-12T14:04:25.201Z,20.57
2023-05-12T14:09:25.455Z,20.54
2023-05-12T14:14:26.719Z,20.55
2023-05-12T14:19:23.971Z,20.57
2023-05-12T14:24:24.197Z,20.57
2023-05-12T14:29:23.446Z,20.55
2023-05-12T14:34:21.700Z,20.43
2023-05-12T14:39:20.965Z,20.47
2023-05-12T14:44:20.246Z,20.43
2023-05-12T14:49:19.516Z,20.42
2023-05-12T14:54:25.133Z,20.52
2023-05-12T14:59:18.086Z,20.59
2023-05-12T15:04:18.388Z,20.67
2023-05-12T15:09:17.621Z,20.69
2023-05-12T15:14:15.837Z,20.74
2023-05-12T15:19:16.149Z,20.79
2023-05-12T15:24:15.340Z,20.84
2023-05-12T15:29:14.556Z,20.84
2023-05-12T15:34:13.768Z,20.84
2023-05-12T15:39:12.068Z,20.84
2023-05-12T15:44:11.339Z,20.89
2023-05-12T15:49:10.546Z,20.88
2023-05-12T15:54:10.806Z,20.87
2023-05-12T15:59:11.123Z,20.70
2023-05-12T16:04:08.411Z,20.61
2023-05-12T16:09:07.843Z,20.41
2023-05-12T16:14:06.922Z,20.29
2023-05-12T16:19:07.275Z,20.24
2023-05-12T16:24:06.270Z,20.35
2023-05-12T16:29:03.575Z,20.17
2023-05-12T16:34:04.870Z,20.20
2023-05-12T16:39:03.151Z,20.10
2023-05-12T16:44:02.637Z,20.11
2023-05-12T16:49:02.842Z,19.92
2023-05-12T16:54:00.877Z,19.84
2023-05-12T16:59:01.290Z,19.74
2023-05-12T17:04:00.522Z,19.74
2023-05-12T17:08:59.646Z,19.61
2023-05-12T17:13:59.222Z,20.32
2023-05-12T17:23:56.400Z,21.31
2023-05-12T17:28:56.751Z,21.79
2023-05-12T17:33:55.844Z,22.06
2023-05-12T17:38:54.020Z,22.30
2023-05-12T17:43:54.541Z,22.47
2023-05-12T17:48:52.373Z,22.72
2023-05-12T17:53:51.610Z,22.80
2023-05-12T17:58:50.929Z,22.97
2023-05-12T18:03:50.209Z,22.90
2023-05-12T18:08:51.441Z,22.97
2023-05-12T18:13:49.598Z,23.10
2023-05-12T18:18:47.880Z,23.35
2023-05-12T18:23:47.938Z,23.25
2023-05-12T18:28:46.145Z,23.31
2023-05-12T18:33:46.412Z,23.31
2023-05-12T18:38:44.688Z,23.46
2023-05-12T18:43:44.973Z,23.69
2023-05-12T18:48:42.283Z,23.42
2023-05-12T18:53:42.310Z,23.46
2023-05-12T18:58:41.615Z,23.43
2023-05-12T19:03:41.948Z,23.57
2023-05-12T19:08:40.252Z,23.57
2023-05-12T19:13:39.524Z,23.42
2023-05-12T19:18:39.977Z,23.35
2023-05-12T19:23:38.005Z,23.94
2023-05-12T19:28:37.222Z,24.02
2023-05-12T19:33:37.491Z,23.93
2023-05-12T19:38:35.725Z,23.88
2023-05-12T19:43:37.037Z,23.70
2023-05-12T19:48:34.268Z,23.55
2023-05-12T19:53:34.486Z,23.61
2023-05-12T19:58:32.682Z,23.93
2023-05-12T20:03:31.982Z,24.13
2023-05-12T20:08:31.196Z,23.78
2023-05-12T20:13:30.382Z,23.16
2023-05-12T20:18:29.554Z,23.13
2023-05-12T20:23:30.847Z,22.98
2023-05-12T20:28:30.110Z,22.94
2023-05-12T20:33:27.317Z,22.49
2023-05-12T20:38:25.530Z,22.39
2023-05-12T20:43:25.823Z,22.83
2023-05-12T20:48:25.263Z,22.47
2023-05-12T20:53:26.176Z,22.39
2023-05-12T20:58:23.351Z,22.42
2023-05-12T21:03:23.292Z,22.95
2023-05-12T21:08:22.762Z,22.77
2023-05-12T21:13:20.856Z,22.37
2023-05-12T21:18:20.173Z,21.99
2023-05-12T21:23:20.503Z,22.57
2023-05-12T21:28:19.218Z,22.30
2023-05-12T21:33:18.959Z,22.80
2023-05-12T21:38:17.294Z,22.21
2023-05-12T21:43:16.572Z,21.96
2023-05-12T21:48:16.928Z,22.33
2023-05-12T21:53:15.235Z,22.60
2023-05-12T21:58:14.513Z,22.51
2023-05-12T22:03:13.924Z,22.40
2023-05-12T22:08:14.275Z,22.47
2023-05-12T22:13:13.353Z,22.92
2023-05-12T22:18:11.633Z,22.55
2023-05-12T22:23:10.901Z,23.05
2023-05-12T22:28:11.235Z,22.91
2023-05-12T22:33:09.538Z,22.91
2023-05-12T22:38:08.653Z,22.92
2023-05-12T22:43:11.067Z,23.10
2023-05-12T22:48:08.366Z,23.79
2023-05-12T22:53:07.349Z,23.98
2023-05-12T22:58:07.710Z,24.25
2023-05-12T23:03:04.843Z,23.80
2023-05-12T23:08:04.211Z,23.17
2023-05-12T23:13:04.426Z,22.64
2023-05-12T23:18:02.608Z,22.46
2023-05-12T23:23:01.719Z,22.24
2023-05-12T23:28:02.124Z,22.00
2023-05-12T23:33:00.353Z,21.80
2023-05-12T23:37:59.481Z,21.65
2023-05-12T23:42:59.706Z,21.40
2023-05-12T23:47:57.870Z,21.22
2023-05-12T23:52:58.043Z,21.01
2023-05-12T23:57:56.354Z,20.82
